Terminal Aerodrome Forecast
Issued by NWS

Home | Current Version | Previous Version | Text Only | Print | Product List | Glossary On
Versions: 1 2 3 4 5 6 7 8 9 10 11 12 13 14 15 16 17 18 19 20 21 22 23 24 25 26 27 28 29 30 31 32
450
FTUS45 KBOU 201734
TAFAPA
TAF
KAPA 201734Z 2018/2118 04007KT P6SM FEW090 SCT140 SCT200
     FM202100 09010KT P6SM VCTS SCT090CB SCT130 BKN200
      TEMPO 2023/2102 VRB20G35KT -TSRA
     FM210300 14009KT P6SM VCTS SCT100CB BKN200
     FM210500 20008KT P6SM FEW100 SCT200=

USA.gov is the U.S. government's official web portal to all federal, state and local government web resources and services.